createdAt,value
2018-02-09T00:01:35.338Z,56.75
2018-02-09T00:04:06.403Z,57.97
2018-02-09T00:06:37.450Z,54.38
2018-02-09T00:09:08.514Z,54.88
2018-02-09T00:11:39.575Z,54.75
2018-02-09T00:14:10.612Z,56.90
2018-02-09T00:16:41.683Z,55.08
2018-02-09T00:19:12.779Z,55.03
2018-02-09T00:21:43.872Z,52.45
2018-02-09T00:24:14.938Z,57.45
2018-02-09T00:26:46.025Z,53.13
2018-02-09T00:29:17.067Z,59.65
2018-02-09T00:31:48.186Z,53.67
2018-02-09T00:34:19.230Z,52.08
2018-02-09T00:36:50.310Z,52.43
2018-02-09T00:39:21.423Z,51.78
2018-02-09T00:41:52.468Z,51.10
2018-02-09T00:44:23.506Z,51.63
2018-02-09T00:46:54.555Z,51.92
2018-02-09T00:49:25.623Z,52.78
2018-02-09T00:51:56.705Z,52.35
2018-02-09T00:54:27.772Z,52.62
2018-02-09T00:56:58.872Z,51.57
2018-02-09T00:59:29.951Z,54.80
2018-02-09T01:02:00.987Z,54.67
2018-02-09T01:04:32.078Z,53.63
2018-02-09T01:07:03.179Z,53.72
2018-02-09T01:09:34.311Z,53.90
2018-02-09T01:12:05.370Z,52.20
2018-02-09T01:14:37.089Z,52.65
2018-02-09T01:17:08.201Z,53.65
2018-02-09T01:19:39.864Z,49.30
2018-02-09T01:22:10.886Z,47.95
2018-02-09T01:24:41.961Z,50.85
2018-02-09T01:27:12.998Z,52.85
2018-02-09T01:29:43.998Z,48.97
2018-02-09T01:32:15.050Z,52.77
2018-02-09T01:34:46.114Z,53.33
2018-02-09T01:37:17.218Z,51.13
2018-02-09T01:39:48.297Z,51.50
2018-02-09T01:42:19.369Z,50.38
2018-02-09T01:44:50.529Z,52.50
2018-02-09T01:47:21.607Z,53.60
2018-02-09T01:50:05.204Z,53.53
2018-02-09T01:52:36.350Z,54.17
2018-02-09T01:55:07.409Z,56.50
2018-02-09T01:57:38.493Z,51.17
2018-02-09T02:00:09.548Z,50.55
2018-02-09T02:02:47.647Z,52.40
2018-02-09T02:05:18.685Z,50.22
2018-02-09T02:07:49.783Z,50.10
2018-02-09T02:10:20.857Z,52.67
2018-02-09T02:12:51.917Z,52.38
2018-02-09T02:15:23.011Z,53.70
2018-02-09T02:17:54.125Z,52.08
2018-02-09T02:20:25.250Z,50.40
2018-02-09T02:22:56.290Z,50.70
2018-02-09T02:25:27.385Z,50.53
2018-02-09T02:27:58.475Z,52.97
2018-02-09T02:30:29.563Z,48.08
2018-02-09T02:33:00.659Z,50.92
2018-02-09T02:35:31.708Z,49.42
2018-02-09T02:38:02.786Z,50.97
2018-02-09T02:40:33.839Z,54.70
2018-02-09T02:43:04.923Z,49.07
2018-02-09T02:45:36.005Z,47.30
2018-02-09T02:48:07.074Z,47.75
2018-02-09T02:50:38.185Z,48.45
2018-02-09T02:53:09.268Z,49.47
2018-02-09T02:55:40.351Z,48.43
2018-02-09T02:58:11.410Z,48.28
2018-02-09T03:00:42.503Z,54.10
2018-02-09T03:03:13.585Z,47.45
2018-02-09T03:05:44.669Z,47.80
2018-02-09T03:08:15.739Z,48.03
2018-02-09T03:10:46.862Z,49.05
2018-02-09T03:13:17.936Z,47.03
2018-02-09T03:15:49.013Z,48.95
2018-02-09T03:18:20.114Z,50.35
2018-02-09T03:20:51.173Z,52.95
2018-02-09T03:23:22.257Z,52.55
2018-02-09T03:25:53.291Z,52.08
2018-02-09T03:28:24.377Z,48.13
2018-02-09T03:30:55.434Z,45.17
2018-02-09T03:33:26.466Z,43.67
2018-02-09T03:35:57.525Z,50.88
2018-02-09T03:38:28.598Z,48.28
2018-02-09T03:40:59.666Z,50.80
2018-02-09T03:43:30.717Z,48.00
2018-02-09T03:46:01.817Z,48.13
2018-02-09T03:48:32.873Z,47.88
2018-02-09T03:51:04.435Z,45.37
2018-02-09T03:53:35.475Z,43.45
2018-02-09T03:56:06.536Z,43.92
2018-02-09T03:58:38.196Z,41.57
2018-02-09T04:01:09.259Z,42.08
2018-02-09T04:03:40.336Z,43.95
2018-02-09T04:06:11.424Z,44.77
2018-02-09T04:08:42.515Z,43.45
2018-02-09T04:11:13.627Z,45.20
2018-02-09T04:13:44.691Z,45.22
2018-02-09T04:16:15.756Z,43.38
2018-02-09T04:18:46.858Z,43.45
2018-02-09T04:21:18.013Z,44.22
2018-02-09T04:23:49.080Z,43.90
2018-02-09T04:26:20.139Z,44.85
2018-02-09T04:28:51.236Z,43.67
2018-02-09T04:31:22.335Z,45.65
2018-02-09T04:33:53.421Z,43.75
2018-02-09T04:36:24.466Z,43.30
2018-02-09T04:38:55.603Z,44.45
2018-02-09T04:41:26.699Z,45.12
2018-02-09T04:43:57.795Z,42.13
2018-02-09T04:46:28.819Z,43.28
2018-02-09T04:49:01.340Z,46.17
2018-02-09T04:51:32.411Z,47.10
2018-02-09T04:54:03.452Z,47.03
2018-02-09T04:56:34.482Z,47.65
2018-02-09T04:59:05.525Z,45.55
2018-02-09T05:01:36.623Z,46.05
2018-02-09T05:04:07.657Z,47.80
2018-02-09T05:06:38.825Z,44.88
2018-02-09T05:09:09.898Z,45.63
2018-02-09T05:11:41.010Z,42.88
2018-02-09T05:14:12.123Z,43.38
2018-02-09T05:16:43.191Z,45.25
2018-02-09T05:19:14.221Z,46.05
2018-02-09T05:21:45.374Z,44.33
2018-02-09T05:24:16.487Z,45.55
2018-02-09T05:26:47.592Z,44.55
2018-02-09T05:29:18.656Z,43.22
2018-02-09T05:31:49.724Z,47.53
2018-02-09T05:34:20.775Z,46.13
2018-02-09T05:36:51.834Z,45.88
2018-02-09T05:39:22.906Z,45.78
2018-02-09T05:41:53.987Z,43.55
2018-02-09T05:44:25.067Z,45.22
2018-02-09T05:46:56.167Z,46.05
2018-02-09T05:49:27.239Z,45.63
2018-02-09T05:51:58.301Z,44.28
2018-02-09T05:54:29.353Z,44.37
2018-02-09T05:57:00.444Z,46.58
2018-02-09T05:59:31.562Z,46.95
2018-02-09T06:02:02.711Z,44.40
2018-02-09T06:04:33.767Z,44.07
2018-02-09T06:07:04.815Z,42.17
2018-02-09T06:09:35.912Z,44.30
2018-02-09T06:12:07.003Z,45.30
2018-02-09T06:14:38.080Z,45.55
2018-02-09T06:17:09.144Z,48.10
2018-02-09T06:19:40.219Z,44.97
2018-02-09T06:22:11.289Z,43.60
2018-02-09T06:24:42.420Z,45.55
2018-02-09T06:27:13.536Z,44.80
2018-02-09T06:29:44.611Z,44.33
2018-02-09T06:32:15.731Z,43.38
2018-02-09T06:34:46.798Z,47.88
2018-02-09T06:37:17.846Z,43.67
2018-02-09T06:39:48.917Z,46.60
2018-02-09T06:42:20.001Z,46.50
2018-02-09T06:44:51.091Z,45.42
2018-02-09T06:47:22.264Z,44.60
2018-02-09T06:49:53.340Z,46.77
2018-02-09T06:52:24.450Z,46.35
2018-02-09T06:54:55.478Z,46.70
2018-02-09T06:57:26.503Z,47.17
2018-02-09T06:59:57.604Z,58.40
2018-02-09T07:02:28.675Z,46.35
2018-02-09T07:04:59.755Z,46.97
2018-02-09T07:07:30.788Z,45.03
2018-02-09T07:10:01.876Z,44.70
2018-02-09T07:12:32.954Z,44.40
2018-02-09T07:15:04.020Z,45.63
2018-02-09T07:17:35.116Z,43.93
2018-02-09T07:20:06.324Z,43.37
2018-02-09T07:22:37.420Z,43.63
2018-02-09T07:25:08.484Z,42.20
2018-02-09T07:27:39.590Z,42.30
2018-02-09T07:30:10.678Z,40.40
2018-02-09T07:32:41.789Z,44.20
2018-02-09T07:35:12.856Z,41.67
2018-02-09T07:37:43.925Z,41.50
2018-02-09T07:40:15.011Z,43.37
2018-02-09T07:42:46.070Z,37.70
2018-02-09T07:45:17.095Z,40.00
2018-02-09T07:47:48.163Z,39.47
2018-02-09T07:50:19.229Z,42.77
2018-02-09T07:52:50.309Z,41.40
2018-02-09T07:55:21.390Z,42.63
2018-02-09T07:57:52.504Z,40.27
2018-02-09T08:00:23.558Z,43.80
2018-02-09T08:02:54.640Z,44.00
2018-02-09T08:05:25.770Z,40.50
2018-02-09T08:07:56.817Z,41.83
2018-02-09T08:10:27.895Z,41.93
2018-02-09T08:12:58.982Z,41.17
2018-02-09T08:15:30.135Z,41.97
2018-02-09T08:18:01.211Z,39.33
2018-02-09T08:20:32.359Z,41.50
2018-02-09T08:23:03.446Z,40.77
2018-02-09T08:25:34.532Z,41.00
2018-02-09T08:28:05.631Z,39.67
2018-02-09T08:30:36.719Z,40.50
2018-02-09T08:33:07.808Z,39.50
2018-02-09T08:35:38.873Z,40.23
2018-02-09T08:38:09.980Z,39.10
2018-02-09T08:40:41.071Z,39.57
2018-02-09T08:43:12.096Z,40.17
2018-02-09T08:45:43.181Z,40.23
2018-02-09T08:48:14.225Z,39.03
2018-02-09T08:50:45.311Z,37.67
2018-02-09T08:53:16.391Z,40.13
2018-02-09T08:55:47.490Z,38.27
2018-02-09T08:58:18.530Z,39.17
2018-02-09T09:00:49.616Z,38.97
2018-02-09T09:03:20.731Z,37.00
2018-02-09T09:05:51.808Z,37.23
2018-02-09T09:08:22.887Z,38.70
2018-02-09T09:10:53.990Z,38.23
2018-02-09T09:13:25.065Z,37.83
2018-02-09T09:15:56.222Z,39.07
2018-02-09T09:18:27.342Z,37.90
2018-02-09T09:20:58.466Z,38.67
2018-02-09T09:23:29.550Z,36.97
2018-02-09T09:26:00.645Z,37.47
2018-02-09T09:28:31.677Z,36.03
2018-02-09T09:31:02.876Z,37.10
2018-02-09T09:33:33.955Z,38.77
2018-02-09T09:36:05.063Z,40.17
2018-02-09T09:38:36.138Z,38.93
2018-02-09T09:41:07.264Z,37.40
2018-02-09T09:43:38.324Z,36.80
2018-02-09T09:46:09.387Z,37.07
2018-02-09T09:48:40.478Z,37.47
2018-02-09T09:51:11.664Z,34.57
2018-02-09T09:53:42.747Z,32.30
2018-02-09T09:56:13.852Z,33.80
2018-02-09T09:58:44.901Z,34.33
2018-02-09T10:01:21.043Z,32.20
2018-02-09T10:03:52.118Z,32.27
2018-02-09T10:06:23.170Z,31.00
2018-02-09T10:08:54.243Z,30.57
2018-02-09T10:11:25.329Z,31.47
2018-02-09T10:13:56.409Z,30.40
2018-02-09T10:16:27.486Z,32.17
2018-02-09T10:18:58.619Z,31.97
2018-02-09T10:21:29.671Z,29.97
2018-02-09T10:24:00.743Z,30.13
2018-02-09T10:26:31.888Z,28.63
2018-02-09T10:29:03.512Z,28.60
2018-02-09T10:31:34.601Z,29.63
2018-02-09T10:34:05.635Z,28.17
2018-02-09T10:36:36.690Z,25.50
2018-02-09T10:39:07.832Z,25.43
2018-02-09T10:41:38.949Z,27.03
2018-02-09T10:44:10.056Z,27.20
2018-02-09T10:46:41.152Z,27.97
2018-02-09T10:49:12.227Z,28.00
2018-02-09T10:51:43.321Z,28.10
2018-02-09T10:54:14.438Z,24.87
2018-02-09T10:56:45.502Z,23.50
2018-02-09T10:59:16.639Z,24.43
2018-02-09T11:01:47.713Z,24.13
2018-02-09T11:04:18.851Z,26.63
2018-02-09T11:06:49.947Z,28.60
2018-02-09T11:09:27.078Z,26.77
2018-02-09T11:11:58.228Z,26.27
2018-02-09T11:14:29.297Z,28.60
2018-02-09T11:17:00.380Z,28.80
2018-02-09T11:19:31.465Z,29.90
2018-02-09T11:22:02.548Z,27.93
2018-02-09T11:24:33.594Z,27.37
2018-02-09T11:27:04.707Z,28.00
2018-02-09T11:29:35.809Z,28.20
2018-02-09T11:32:06.950Z,26.10
2018-02-09T11:34:38.036Z,27.47
2018-02-09T11:37:09.125Z,28.67
2018-02-09T11:39:40.212Z,21.87
2018-02-09T11:42:11.313Z,21.93
2018-02-09T11:44:42.390Z,23.30
2018-02-09T11:47:13.506Z,23.57
2018-02-09T11:49:44.583Z,23.17
2018-02-09T11:52:15.678Z,22.90
2018-02-09T11:54:46.806Z,21.33
2018-02-09T11:57:17.845Z,22.43
2018-02-09T11:59:48.914Z,21.57
2018-02-09T12:02:19.998Z,26.47
2018-02-09T12:04:51.056Z,26.97
2018-02-09T12:07:22.133Z,26.50
2018-02-09T12:09:53.180Z,24.97
2018-02-09T12:12:24.402Z,24.20
2018-02-09T12:14:55.534Z,26.07
2018-02-09T12:17:26.627Z,26.90
2018-02-09T12:19:57.658Z,27.40
2018-02-09T12:22:28.738Z,25.63
2018-02-09T12:24:59.811Z,25.23
2018-02-09T12:27:30.910Z,25.10
2018-02-09T12:30:02.054Z,25.60
2018-02-09T12:32:33.090Z,27.87
2018-02-09T12:35:04.313Z,26.27
2018-02-09T12:37:35.422Z,27.90
2018-02-09T12:40:06.488Z,24.00
2018-02-09T12:42:37.601Z,26.10
2018-02-09T12:45:08.696Z,25.67
2018-02-09T12:47:39.826Z,25.70
2018-02-09T12:50:10.855Z,26.63
2018-02-09T12:52:41.982Z,27.23
2018-02-09T12:55:13.064Z,26.13
2018-02-09T12:57:44.201Z,27.43
2018-02-09T13:00:15.253Z,27.57
2018-02-09T13:02:46.421Z,26.23
2018-02-09T13:05:17.471Z,26.07
2018-02-09T13:07:48.561Z,27.70
2018-02-09T13:10:19.627Z,30.73
2018-02-09T13:13:02.888Z,27.77
2018-02-09T13:15:34.053Z,28.20
2018-02-09T13:18:05.136Z,29.50
2018-02-09T13:20:36.177Z,26.87
2018-02-09T13:23:19.534Z,25.73
2018-02-09T13:25:50.593Z,27.53
2018-02-09T13:28:34.041Z,27.33
2018-02-09T13:31:05.154Z,27.70
2018-02-09T13:33:36.421Z,27.47
2018-02-09T13:36:07.474Z,26.40
2018-02-09T13:38:38.560Z,26.03
2018-02-09T13:41:09.620Z,26.73
2018-02-09T13:43:40.713Z,26.30
2018-02-09T13:46:11.761Z,24.57
2018-02-09T13:48:42.822Z,28.73
2018-02-09T13:51:13.964Z,27.67
2018-02-09T13:53:46.605Z,26.83
2018-02-09T13:56:17.646Z,26.23
2018-02-09T13:58:48.747Z,28.97
2018-02-09T14:01:19.861Z,26.50
2018-02-09T14:03:50.966Z,24.60
2018-02-09T14:06:22.114Z,26.30
2018-02-09T14:08:53.158Z,25.13
2018-02-09T14:11:24.203Z,26.53
2018-02-09T14:13:55.272Z,30.20
2018-02-09T14:16:26.362Z,26.27
2018-02-09T14:18:57.483Z,27.47
2018-02-09T14:21:28.593Z,26.37
2018-02-09T14:23:59.865Z,24.67
2018-02-09T14:26:30.984Z,26.60
2018-02-09T14:29:02.086Z,24.63
2018-02-09T14:31:33.201Z,23.30
2018-02-09T14:34:04.854Z,25.67
2018-02-09T14:36:35.934Z,25.77
2018-02-09T14:39:07.009Z,24.53
2018-02-09T14:41:38.663Z,23.37
2018-02-09T14:44:09.731Z,24.57
2018-02-09T14:46:40.833Z,27.90
2018-02-09T14:49:11.908Z,26.70
2018-02-09T14:51:42.962Z,25.00
2018-02-09T14:54:14.077Z,25.40
2018-02-09T14:56:45.134Z,25.20
2018-02-09T14:59:16.337Z,23.33
2018-02-09T15:01:47.461Z,22.90
2018-02-09T15:04:18.571Z,23.80
2018-02-09T15:06:49.641Z,23.80
2018-02-09T15:09:20.740Z,24.53
2018-02-09T15:11:51.824Z,22.93
2018-02-09T15:14:22.891Z,21.43
2018-02-09T15:16:53.943Z,23.53
2018-02-09T15:19:25.139Z,23.10
2018-02-09T15:21:56.930Z,22.30
2018-02-09T15:24:28.154Z,24.47
2018-02-09T15:26:59.295Z,23.60
2018-02-09T15:29:30.374Z,24.50
2018-02-09T15:32:01.483Z,24.03
2018-02-09T15:34:32.531Z,22.33
2018-02-09T15:37:03.714Z,21.23
2018-02-09T15:39:34.790Z,24.20
2018-02-09T15:42:06.054Z,24.23
2018-02-09T15:44:37.959Z,24.33
2018-02-09T15:47:09.091Z,24.07
2018-02-09T15:49:41.088Z,22.30
2018-02-09T15:52:12.192Z,23.97
2018-02-09T15:54:43.974Z,23.43
2018-02-09T15:57:15.124Z,25.50
2018-02-09T15:59:46.186Z,23.10
2018-02-09T16:04:58.794Z,23.03
2018-02-09T16:07:29.876Z,22.33
2018-02-09T16:10:01.493Z,20.13
2018-02-09T16:12:32.660Z,22.70
2018-02-09T16:15:04.398Z,24.40
2018-02-09T16:17:35.629Z,22.17
2018-02-09T16:20:06.716Z,22.53
2018-02-09T16:22:37.858Z,22.60
2018-02-09T16:25:08.934Z,23.47
2018-02-09T16:27:40.006Z,22.80
2018-02-09T16:30:11.077Z,25.87
2018-02-09T16:32:42.196Z,22.20
2018-02-09T16:35:13.256Z,24.10
2018-02-09T16:37:44.306Z,27.27
2018-02-09T16:40:15.346Z,26.27
2018-02-09T16:42:46.552Z,25.60
2018-02-09T16:45:17.632Z,24.43
2018-02-09T16:47:48.757Z,25.00
2018-02-09T16:50:19.828Z,24.80
2018-02-09T16:52:50.940Z,27.10
2018-02-09T16:55:21.992Z,27.07
2018-02-09T16:57:53.054Z,29.97
2018-02-09T17:00:24.108Z,26.07
2018-02-09T17:02:55.172Z,26.50
2018-02-09T17:05:26.207Z,30.90
2018-02-09T17:07:57.324Z,29.13
2018-02-09T17:10:28.424Z,28.53
2018-02-09T17:12:59.538Z,28.30
2018-02-09T17:15:30.611Z,27.67
2018-02-09T17:18:01.724Z,28.47
2018-02-09T17:20:32.795Z,31.13
2018-02-09T17:23:03.826Z,28.17
2018-02-09T17:25:34.883Z,29.90
2018-02-09T17:28:06.062Z,31.13
2018-02-09T17:30:37.134Z,30.67
2018-02-09T17:33:08.182Z,30.63
2018-02-09T17:35:39.284Z,30.17
2018-02-09T17:38:10.380Z,28.03
2018-02-09T17:40:41.448Z,29.17
2018-02-09T17:43:12.520Z,27.40
2018-02-09T17:45:43.573Z,26.47
2018-02-09T17:48:14.654Z,27.37
2018-02-09T17:50:45.702Z,28.10
2018-02-09T17:53:16.802Z,29.37
2018-02-09T17:55:47.875Z,27.13
2018-02-09T17:58:18.966Z,24.70
2018-02-09T18:00:50.075Z,27.77
2018-02-09T18:03:21.608Z,29.73
2018-02-09T18:05:52.739Z,30.13
2018-02-09T18:08:23.832Z,28.33
2018-02-09T18:10:54.914Z,30.13
2018-02-09T18:13:26.045Z,28.77
2018-02-09T18:15:57.138Z,30.60
2018-02-09T18:18:28.218Z,29.57
2018-02-09T18:20:59.293Z,28.03
2018-02-09T18:23:30.339Z,28.70
2018-02-09T18:26:01.426Z,29.57
2018-02-09T18:28:32.523Z,32.77
2018-02-09T18:31:03.621Z,30.93
2018-02-09T18:33:34.660Z,30.33
2018-02-09T18:36:05.744Z,31.63
2018-02-09T18:38:36.835Z,37.05
2018-02-09T18:41:07.885Z,33.53
2018-02-09T18:43:38.932Z,32.10
2018-02-09T18:46:10.155Z,32.90
2018-02-09T18:48:41.247Z,30.67
2018-02-09T18:51:12.322Z,33.00
2018-02-09T18:53:44.140Z,31.03
2018-02-09T18:56:15.213Z,32.63
2018-02-09T18:58:46.313Z,32.53
2018-02-09T19:01:17.362Z,33.27
2018-02-09T19:03:48.455Z,32.20
2018-02-09T19:06:19.580Z,31.27
2018-02-09T19:08:50.642Z,35.83
2018-02-09T19:11:21.702Z,32.87
2018-02-09T19:13:52.755Z,32.33
2018-02-09T19:16:23.907Z,32.60
2018-02-09T19:18:54.958Z,30.80
2018-02-09T19:21:26.037Z,33.20
2018-02-09T19:23:57.113Z,35.63
2018-02-09T19:26:28.167Z,32.33
2018-02-09T19:28:59.222Z,30.90
2018-02-09T19:31:30.325Z,33.20
2018-02-09T19:34:01.435Z,35.50
2018-02-09T19:36:32.502Z,32.60
2018-02-09T19:39:03.658Z,31.50
2018-02-09T19:41:34.686Z,33.73
2018-02-09T19:44:05.737Z,32.70
2018-02-09T19:46:36.826Z,32.07
2018-02-09T19:49:07.930Z,34.87
2018-02-09T19:51:38.999Z,32.73
2018-02-09T19:54:10.042Z,34.97
2018-02-09T19:56:41.094Z,34.40
2018-02-09T19:59:12.158Z,36.77
2018-02-09T20:01:43.243Z,31.17
2018-02-09T20:04:14.343Z,33.63
2018-02-09T20:06:45.412Z,33.97
2018-02-09T20:09:16.473Z,34.97
2018-02-09T20:11:47.571Z,33.47
2018-02-09T20:14:18.614Z,33.20
2018-02-09T20:16:49.744Z,33.20
2018-02-09T20:19:20.781Z,35.97
2018-02-09T20:21:51.861Z,36.83
2018-02-09T20:24:22.898Z,35.23
2018-02-09T20:26:54.003Z,33.47
2018-02-09T20:32:31.276Z,35.83
2018-02-09T20:35:02.332Z,38.10
2018-02-09T20:37:33.393Z,37.17
2018-02-09T20:40:04.462Z,36.23
2018-02-09T20:42:35.557Z,35.73
2018-02-09T20:45:06.614Z,35.77
2018-02-09T20:47:37.674Z,36.60
2018-02-09T20:50:09.341Z,37.37
2018-02-09T20:52:40.356Z,38.17
2018-02-09T20:55:11.459Z,35.90
2018-02-09T20:57:42.509Z,36.97
2018-02-09T21:00:20.636Z,38.27
2018-02-09T21:02:51.706Z,38.93
2018-02-09T21:05:22.802Z,36.43
2018-02-09T21:07:53.856Z,37.43
2018-02-09T21:10:25.707Z,37.63
2018-02-09T21:12:56.778Z,38.43
2018-02-09T21:15:27.924Z,35.77
2018-02-09T21:17:59.016Z,37.50
2018-02-09T21:20:30.080Z,38.57
2018-02-09T21:23:01.197Z,36.73
2018-02-09T21:25:32.267Z,37.43
2018-02-09T21:28:03.372Z,35.53
2018-02-09T21:30:34.444Z,35.27
2018-02-09T21:33:05.487Z,34.93
2018-02-09T21:35:36.536Z,36.77
2018-02-09T21:38:07.620Z,36.30
2018-02-09T21:40:38.689Z,34.33
2018-02-09T21:43:09.727Z,34.40
2018-02-09T21:45:40.921Z,36.40
2018-02-09T21:48:11.963Z,37.73
2018-02-09T21:50:43.124Z,35.37
2018-02-09T21:53:15.008Z,33.50
2018-02-09T21:55:46.124Z,35.17
2018-02-09T21:58:17.190Z,38.20
2018-02-09T22:00:48.281Z,36.73
2018-02-09T22:03:19.360Z,36.23
2018-02-09T22:05:50.452Z,37.47
2018-02-09T22:08:21.486Z,36.10
2018-02-09T22:10:52.531Z,37.20
2018-02-09T22:13:23.585Z,35.60
2018-02-09T22:15:54.658Z,36.63
2018-02-09T22:18:25.688Z,38.33
2018-02-09T22:20:56.779Z,38.60
2018-02-09T22:23:27.861Z,39.53
2018-02-09T22:25:58.995Z,40.03
2018-02-09T22:28:30.118Z,38.80
2018-02-09T22:31:01.152Z,39.57
2018-02-09T22:33:32.214Z,39.37
2018-02-09T22:36:03.269Z,36.43
2018-02-09T22:38:34.367Z,38.47
2018-02-09T22:41:05.428Z,40.77
2018-02-09T22:43:36.491Z,40.20
2018-02-09T22:46:07.505Z,41.57
2018-02-09T22:48:38.592Z,38.90
2018-02-09T22:51:09.709Z,39.73
2018-02-09T22:53:40.735Z,41.00
2018-02-09T22:56:13.232Z,39.20
2018-02-09T22:58:44.299Z,39.53
2018-02-09T23:01:15.414Z,41.47
2018-02-09T23:03:46.473Z,39.87
2018-02-09T23:06:17.540Z,41.90
2018-02-09T23:08:48.653Z,41.73
2018-02-09T23:11:19.752Z,42.87
2018-02-09T23:13:50.840Z,41.27
2018-02-09T23:16:21.923Z,42.33
2018-02-09T23:18:52.992Z,40.57
2018-02-09T23:21:24.073Z,39.90
2018-02-09T23:23:55.111Z,40.80
2018-02-09T23:26:26.156Z,39.73
2018-02-09T23:28:57.266Z,42.50
2018-02-09T23:31:28.335Z,42.57
2018-02-09T23:33:59.366Z,39.70
2018-02-09T23:36:30.426Z,43.33
2018-02-09T23:39:01.529Z,41.03
2018-02-09T23:41:32.578Z,39.07
2018-02-09T23:44:03.688Z,41.50
2018-02-09T23:46:34.812Z,41.23
2018-02-09T23:49:05.893Z,40.87
2018-02-09T23:51:36.935Z,40.40
2018-02-09T23:54:08.046Z,39.80
2018-02-09T23:56:39.111Z,41.20
2018-02-09T23:59:10.156Z,41.13
